sensor_id;sensor_type;location;lat;lon;timestamp;P1;durP1;ratioP1;P2;durP2;ratioP2
9445;SDS011;4761;49.490;10.908;2023-04-07T00:02:04;4.23;;;3.83;;
9445;SDS011;4761;49.490;10.908;2023-04-07T00:04:29;5.37;;;3.97;;
9445;SDS011;4761;49.490;10.908;2023-04-07T00:06:55;4.70;;;4.30;;
9445;SDS011;4761;49.490;10.908;2023-04-07T00:09:20;4.80;;;4.00;;
9445;SDS011;4761;49.490;10.908;2023-04-07T00:11:46;4.80;;;3.80;;
9445;SDS011;4761;49.490;10.908;2023-04-07T00:14:12;5.73;;;4.73;;
9445;SDS011;4761;49.490;10.908;2023-04-07T00:16:38;4.23;;;3.83;;
9445;SDS011;4761;49.490;10.908;2023-04-07T00:19:03;4.40;;;4.00;;
9445;SDS011;4761;49.490;10.908;2023-04-07T00:21:29;4.23;;;3.83;;
9445;SDS011;4761;49.490;10.908;2023-04-07T00:23:55;5.40;;;4.50;;
9445;SDS011;4761;49.490;10.908;2023-04-07T00:26:20;4.43;;;4.00;;
9445;SDS011;4761;49.490;10.908;2023-04-07T00:28:46;5.07;;;4.53;;
9445;SDS011;4761;49.490;10.908;2023-04-07T00:31:12;4.50;;;4.10;;
9445;SDS011;4761;49.490;10.908;2023-04-07T00:33:37;5.83;;;4.63;;
9445;SDS011;4761;49.490;10.908;2023-04-07T00:36:03;5.37;;;4.57;;
9445;SDS011;4761;49.490;10.908;2023-04-07T00:38:29;4.60;;;4.20;;
9445;SDS011;4761;49.490;10.908;2023-04-07T00:40:57;4.60;;;4.13;;
9445;SDS011;4761;49.490;10.908;2023-04-07T00:43:24;4.80;;;4.30;;
9445;SDS011;4761;49.490;10.908;2023-04-07T00:45:50;4.67;;;4.27;;
9445;SDS011;4761;49.490;10.908;2023-04-07T00:48:16;4.47;;;3.90;;
9445;SDS011;4761;49.490;10.908;2023-04-07T00:50:43;4.83;;;4.37;;
9445;SDS011;4761;49.490;10.908;2023-04-07T00:53:10;4.70;;;4.23;;
9445;SDS011;4761;49.490;10.908;2023-04-07T00:55:36;5.00;;;4.10;;
9445;SDS011;4761;49.490;10.908;2023-04-07T00:58:02;5.47;;;4.50;;
9445;SDS011;4761;49.490;10.908;2023-04-07T01:00:29;5.10;;;4.27;;
9445;SDS011;4761;49.490;10.908;2023-04-07T01:03:05;6.03;;;4.40;;
9445;SDS011;4761;49.490;10.908;2023-04-07T01:08:03;5.37;;;4.73;;
9445;SDS011;4761;49.490;10.908;2023-04-07T01:10:52;5.27;;;4.77;;
9445;SDS011;4761;49.490;10.908;2023-04-07T01:13:48;7.00;;;5.27;;
9445;SDS011;4761;49.490;10.908;2023-04-07T01:16:21;5.57;;;4.57;;
9445;SDS011;4761;49.490;10.908;2023-04-07T01:18:49;6.40;;;4.83;;
9445;SDS011;4761;49.490;10.908;2023-04-07T01:21:18;5.30;;;4.27;;
9445;SDS011;4761;49.490;10.908;2023-04-07T01:26:36;6.30;;;5.13;;
9445;SDS011;4761;49.490;10.908;2023-04-07T01:31:49;5.90;;;4.90;;
9445;SDS011;4761;49.490;10.908;2023-04-07T01:34:15;6.50;;;4.87;;
9445;SDS011;4761;49.490;10.908;2023-04-07T01:36:42;5.57;;;4.70;;
9445;SDS011;4761;49.490;10.908;2023-04-07T01:39:09;6.40;;;4.97;;
9445;SDS011;4761;49.490;10.908;2023-04-07T01:41:36;5.97;;;4.80;;
9445;SDS011;4761;49.490;10.908;2023-04-07T01:44:02;5.20;;;4.70;;
9445;SDS011;4761;49.490;10.908;2023-04-07T01:46:29;6.93;;;5.03;;
9445;SDS011;4761;49.490;10.908;2023-04-07T01:48:54;6.63;;;4.97;;
9445;SDS011;4761;49.490;10.908;2023-04-07T01:51:21;5.80;;;4.60;;
9445;SDS011;4761;49.490;10.908;2023-04-07T01:53:49;6.97;;;5.03;;
9445;SDS011;4761;49.490;10.908;2023-04-07T01:56:14;5.30;;;4.80;;
9445;SDS011;4761;49.490;10.908;2023-04-07T01:58:40;6.07;;;4.37;;
9445;SDS011;4761;49.490;10.908;2023-04-07T02:01:06;5.47;;;4.80;;
9445;SDS011;4761;49.490;10.908;2023-04-07T02:06:43;5.13;;;4.47;;
9445;SDS011;4761;49.490;10.908;2023-04-07T02:09:14;5.07;;;4.30;;
9445;SDS011;4761;49.490;10.908;2023-04-07T02:11:40;6.43;;;5.10;;
9445;SDS011;4761;49.490;10.908;2023-04-07T02:14:07;7.27;;;4.70;;
9445;SDS011;4761;49.490;10.908;2023-04-07T02:16:33;4.77;;;4.30;;
9445;SDS011;4761;49.490;10.908;2023-04-07T02:19:00;6.17;;;4.73;;
9445;SDS011;4761;49.490;10.908;2023-04-07T02:21:27;6.33;;;4.60;;
9445;SDS011;4761;49.490;10.908;2023-04-07T02:23:54;5.57;;;4.43;;
9445;SDS011;4761;49.490;10.908;2023-04-07T02:26:20;5.43;;;4.40;;
9445;SDS011;4761;49.490;10.908;2023-04-07T02:28:45;5.77;;;4.90;;
9445;SDS011;4761;49.490;10.908;2023-04-07T02:31:11;4.97;;;4.27;;
9445;SDS011;4761;49.490;10.908;2023-04-07T02:33:37;5.20;;;4.70;;
9445;SDS011;4761;49.490;10.908;2023-04-07T02:36:03;5.30;;;4.40;;
9445;SDS011;4761;49.490;10.908;2023-04-07T02:38:29;5.10;;;4.40;;
9445;SDS011;4761;49.490;10.908;2023-04-07T02:40:55;5.03;;;4.37;;
9445;SDS011;4761;49.490;10.908;2023-04-07T02:43:22;5.03;;;4.53;;
9445;SDS011;4761;49.490;10.908;2023-04-07T02:45:47;6.00;;;4.73;;
9445;SDS011;4761;49.490;10.908;2023-04-07T02:48:13;5.53;;;4.60;;
9445;SDS011;4761;49.490;10.908;2023-04-07T02:50:38;4.90;;;4.40;;
9445;SDS011;4761;49.490;10.908;2023-04-07T02:53:05;5.30;;;4.80;;
9445;SDS011;4761;49.490;10.908;2023-04-07T02:55:31;4.67;;;4.17;;
9445;SDS011;4761;49.490;10.908;2023-04-07T02:57:56;5.60;;;4.47;;
9445;SDS011;4761;49.490;10.908;2023-04-07T03:00:22;5.40;;;4.87;;
9445;SDS011;4761;49.490;10.908;2023-04-07T03:02:47;5.47;;;4.70;;
9445;SDS011;4761;49.490;10.908;2023-04-07T03:05:13;6.63;;;4.90;;
9445;SDS011;4761;49.490;10.908;2023-04-07T03:07:38;5.60;;;4.80;;
9445;SDS011;4761;49.490;10.908;2023-04-07T03:10:04;5.53;;;4.83;;
9445;SDS011;4761;49.490;10.908;2023-04-07T03:12:30;5.47;;;4.97;;
9445;SDS011;4761;49.490;10.908;2023-04-07T03:14:56;4.90;;;4.40;;
9445;SDS011;4761;49.490;10.908;2023-04-07T03:17:21;5.07;;;4.57;;
9445;SDS011;4761;49.490;10.908;2023-04-07T03:19:47;4.67;;;4.17;;
9445;SDS011;4761;49.490;10.908;2023-04-07T03:22:12;5.10;;;4.60;;
9445;SDS011;4761;49.490;10.908;2023-04-07T03:24:38;7.10;;;4.60;;
9445;SDS011;4761;49.490;10.908;2023-04-07T03:27:05;5.47;;;4.93;;
9445;SDS011;4761;49.490;10.908;2023-04-07T03:29:30;5.17;;;4.50;;
9445;SDS011;4761;49.490;10.908;2023-04-07T03:31:56;4.90;;;4.43;;
9445;SDS011;4761;49.490;10.908;2023-04-07T03:34:21;6.27;;;4.27;;
9445;SDS011;4761;49.490;10.908;2023-04-07T03:36:47;5.73;;;4.70;;
9445;SDS011;4761;49.490;10.908;2023-04-07T03:39:12;5.00;;;4.50;;
9445;SDS011;4761;49.490;10.908;2023-04-07T03:41:38;5.70;;;4.67;;
9445;SDS011;4761;49.490;10.908;2023-04-07T03:44:03;5.33;;;4.37;;
9445;SDS011;4761;49.490;10.908;2023-04-07T03:46:29;5.40;;;4.63;;
9445;SDS011;4761;49.490;10.908;2023-04-07T03:48:55;5.00;;;4.50;;
9445;SDS011;4761;49.490;10.908;2023-04-07T03:51:20;5.27;;;4.40;;
9445;SDS011;4761;49.490;10.908;2023-04-07T03:53:46;4.83;;;4.33;;
9445;SDS011;4761;49.490;10.908;2023-04-07T03:56:11;5.40;;;4.83;;
9445;SDS011;4761;49.490;10.908;2023-04-07T03:58:37;5.40;;;4.87;;
9445;SDS011;4761;49.490;10.908;2023-04-07T04:01:06;5.43;;;4.90;;
9445;SDS011;4761;49.490;10.908;2023-04-07T04:03:32;5.13;;;4.63;;
9445;SDS011;4761;49.490;10.908;2023-04-07T04:05:57;5.77;;;4.83;;
9445;SDS011;4761;49.490;10.908;2023-04-07T04:08:23;5.23;;;4.73;;
9445;SDS011;4761;49.490;10.908;2023-04-07T04:10:48;5.10;;;4.60;;
9445;SDS011;4761;49.490;10.908;2023-04-07T04:13:14;5.33;;;4.83;;
9445;SDS011;4761;49.490;10.908;2023-04-07T04:15:40;6.47;;;5.13;;
9445;SDS011;4761;49.490;10.908;2023-04-07T04:18:05;5.80;;;5.20;;
9445;SDS011;4761;49.490;10.908;2023-04-07T04:20:30;5.30;;;4.80;;
9445;SDS011;4761;49.490;10.908;2023-04-07T04:22:56;5.33;;;4.83;;
9445;SDS011;4761;49.490;10.908;2023-04-07T04:25:21;5.60;;;4.70;;
9445;SDS011;4761;49.490;10.908;2023-04-07T04:27:48;5.90;;;4.97;;
9445;SDS011;4761;49.490;10.908;2023-04-07T04:30:13;5.83;;;4.73;;
9445;SDS011;4761;49.490;10.908;2023-04-07T04:32:39;5.07;;;4.60;;
9445;SDS011;4761;49.490;10.908;2023-04-07T04:35:04;5.63;;;4.80;;
9445;SDS011;4761;49.490;10.908;2023-04-07T04:37:30;5.60;;;4.73;;
9445;SDS011;4761;49.490;10.908;2023-04-07T04:39:56;5.37;;;4.87;;
9445;SDS011;4761;49.490;10.908;2023-04-07T04:42:21;6.33;;;5.00;;
9445;SDS011;4761;49.490;10.908;2023-04-07T04:44:47;6.23;;;5.30;;
9445;SDS011;4761;49.490;10.908;2023-04-07T04:47:12;5.80;;;4.90;;
9445;SDS011;4761;49.490;10.908;2023-04-07T04:49:38;5.30;;;4.80;;
9445;SDS011;4761;49.490;10.908;2023-04-07T04:52:03;5.03;;;4.53;;
9445;SDS011;4761;49.490;10.908;2023-04-07T04:54:29;5.83;;;4.70;;
9445;SDS011;4761;49.490;10.908;2023-04-07T04:56:55;5.83;;;4.67;;
9445;SDS011;4761;49.490;10.908;2023-04-07T04:59:21;4.97;;;4.47;;
9445;SDS011;4761;49.490;10.908;2023-04-07T05:01:47;5.37;;;4.83;;
9445;SDS011;4761;49.490;10.908;2023-04-07T05:04:13;5.57;;;4.90;;
9445;SDS011;4761;49.490;10.908;2023-04-07T05:06:38;5.47;;;4.97;;
9445;SDS011;4761;49.490;10.908;2023-04-07T05:09:03;5.97;;;5.10;;
9445;SDS011;4761;49.490;10.908;2023-04-07T05:11:29;5.43;;;4.93;;
9445;SDS011;4761;49.490;10.908;2023-04-07T05:13:55;5.40;;;4.60;;
9445;SDS011;4761;49.490;10.908;2023-04-07T05:16:20;5.90;;;4.70;;
9445;SDS011;4761;49.490;10.908;2023-04-07T05:18:46;5.63;;;5.00;;
9445;SDS011;4761;49.490;10.908;2023-04-07T05:21:11;5.47;;;4.80;;
9445;SDS011;4761;49.490;10.908;2023-04-07T05:23:37;5.13;;;4.63;;
9445;SDS011;4761;49.490;10.908;2023-04-07T05:26:02;5.90;;;5.00;;
9445;SDS011;4761;49.490;10.908;2023-04-07T05:28:28;6.13;;;4.80;;
9445;SDS011;4761;49.490;10.908;2023-04-07T05:30:53;6.30;;;4.83;;
9445;SDS011;4761;49.490;10.908;2023-04-07T05:33:19;6.23;;;4.80;;
9445;SDS011;4761;49.490;10.908;2023-04-07T05:35:45;4.60;;;4.20;;
9445;SDS011;4761;49.490;10.908;2023-04-07T05:38:11;5.70;;;5.10;;
9445;SDS011;4761;49.490;10.908;2023-04-07T05:40:38;5.10;;;4.60;;
9445;SDS011;4761;49.490;10.908;2023-04-07T05:43:04;5.30;;;4.77;;
9445;SDS011;4761;49.490;10.908;2023-04-07T05:45:30;5.40;;;4.57;;
9445;SDS011;4761;49.490;10.908;2023-04-07T05:47:55;5.60;;;4.63;;
9445;SDS011;4761;49.490;10.908;2023-04-07T05:50:21;5.07;;;4.50;;
9445;SDS011;4761;49.490;10.908;2023-04-07T05:52:46;5.10;;;4.60;;
9445;SDS011;4761;49.490;10.908;2023-04-07T05:55:12;6.50;;;4.20;;
9445;SDS011;4761;49.490;10.908;2023-04-07T05:57:37;5.00;;;4.43;;
9445;SDS011;4761;49.490;10.908;2023-04-07T06:00:03;5.93;;;4.60;;
9445;SDS011;4761;49.490;10.908;2023-04-07T06:02:29;5.20;;;4.70;;
9445;SDS011;4761;49.490;10.908;2023-04-07T06:04:54;4.83;;;4.33;;
9445;SDS011;4761;49.490;10.908;2023-04-07T06:07:20;5.33;;;4.80;;
9445;SDS011;4761;49.490;10.908;2023-04-07T06:09:46;6.50;;;4.77;;
9445;SDS011;4761;49.490;10.908;2023-04-07T06:12:11;5.43;;;4.70;;
9445;SDS011;4761;49.490;10.908;2023-04-07T06:14:37;4.67;;;4.20;;
9445;SDS011;4761;49.490;10.908;2023-04-07T06:17:03;5.13;;;4.63;;
9445;SDS011;4761;49.490;10.908;2023-04-07T06:19:28;5.33;;;4.80;;
9445;SDS011;4761;49.490;10.908;2023-04-07T06:21:54;5.13;;;4.40;;
9445;SDS011;4761;49.490;10.908;2023-04-07T06:24:20;5.17;;;4.67;;
9445;SDS011;4761;49.490;10.908;2023-04-07T06:26:47;4.43;;;4.03;;
9445;SDS011;4761;49.490;10.908;2023-04-07T06:29:13;4.43;;;4.03;;
9445;SDS011;4761;49.490;10.908;2023-04-07T06:31:39;5.50;;;5.00;;
9445;SDS011;4761;49.490;10.908;2023-04-07T06:34:04;4.77;;;4.37;;
9445;SDS011;4761;49.490;10.908;2023-04-07T06:36:30;4.60;;;4.20;;
9445;SDS011;4761;49.490;10.908;2023-04-07T06:38:56;4.90;;;4.40;;
9445;SDS011;4761;49.490;10.908;2023-04-07T06:41:22;5.07;;;4.47;;
9445;SDS011;4761;49.490;10.908;2023-04-07T06:43:48;4.47;;;4.07;;
9445;SDS011;4761;49.490;10.908;2023-04-07T06:46:17;5.00;;;4.50;;
9445;SDS011;4761;49.490;10.908;2023-04-07T06:48:43;4.97;;;4.47;;
9445;SDS011;4761;49.490;10.908;2023-04-07T06:51:09;4.83;;;4.40;;
9445;SDS011;4761;49.490;10.908;2023-04-07T06:53:35;4.77;;;4.23;;
9445;SDS011;4761;49.490;10.908;2023-04-07T06:58:33;4.57;;;4.10;;
9445;SDS011;4761;49.490;10.908;2023-04-07T07:01:00;5.03;;;4.60;;
9445;SDS011;4761;49.490;10.908;2023-04-07T07:03:26;4.50;;;4.10;;
9445;SDS011;4761;49.490;10.908;2023-04-07T07:05:53;5.20;;;4.70;;
9445;SDS011;4761;49.490;10.908;2023-04-07T07:08:20;4.63;;;4.13;;
9445;SDS011;4761;49.490;10.908;2023-04-07T07:10:46;5.10;;;4.60;;
9445;SDS011;4761;49.490;10.908;2023-04-07T07:13:12;4.90;;;4.40;;
9445;SDS011;4761;49.490;10.908;2023-04-07T07:15:37;5.60;;;4.00;;
9445;SDS011;4761;49.490;10.908;2023-04-07T07:18:03;4.57;;;4.17;;
9445;SDS011;4761;49.490;10.908;2023-04-07T07:20:29;4.93;;;4.43;;
9445;SDS011;4761;49.490;10.908;2023-04-07T07:22:54;4.80;;;4.20;;
9445;SDS011;4761;49.490;10.908;2023-04-07T07:25:20;4.37;;;3.97;;
9445;SDS011;4761;49.490;10.908;2023-04-07T07:27:46;4.37;;;3.97;;
9445;SDS011;4761;49.490;10.908;2023-04-07T07:30:16;5.00;;;4.17;;
9445;SDS011;4761;49.490;10.908;2023-04-07T07:32:41;4.80;;;4.40;;
9445;SDS011;4761;49.490;10.908;2023-04-07T07:35:07;4.83;;;4.33;;
9445;SDS011;4761;49.490;10.908;2023-04-07T07:37:32;5.03;;;4.53;;
9445;SDS011;4761;49.490;10.908;2023-04-07T07:39:58;4.40;;;4.00;;
9445;SDS011;4761;49.490;10.908;2023-04-07T07:42:23;5.40;;;4.50;;
9445;SDS011;4761;49.490;10.908;2023-04-07T07:44:49;5.17;;;4.40;;
9445;SDS011;4761;49.490;10.908;2023-04-07T07:47:14;4.70;;;4.20;;
9445;SDS011;4761;49.490;10.908;2023-04-07T07:49:40;4.37;;;3.97;;
9445;SDS011;4761;49.490;10.908;2023-04-07T07:52:06;4.43;;;4.03;;
9445;SDS011;4761;49.490;10.908;2023-04-07T07:54:31;5.27;;;4.20;;
9445;SDS011;4761;49.490;10.908;2023-04-07T07:56:57;4.17;;;3.77;;
9445;SDS011;4761;49.490;10.908;2023-04-07T07:59:22;4.50;;;3.93;;
9445;SDS011;4761;49.490;10.908;2023-04-07T08:01:48;4.60;;;4.20;;
9445;SDS011;4761;49.490;10.908;2023-04-07T08:04:13;5.53;;;4.20;;
9445;SDS011;4761;49.490;10.908;2023-04-07T08:06:39;4.63;;;4.13;;
9445;SDS011;4761;49.490;10.908;2023-04-07T08:09:05;5.00;;;3.93;;
9445;SDS011;4761;49.490;10.908;2023-04-07T08:11:31;4.60;;;4.03;;
9445;SDS011;4761;49.490;10.908;2023-04-07T08:13:56;4.93;;;4.43;;
9445;SDS011;4761;49.490;10.908;2023-04-07T08:16:22;4.97;;;4.40;;
9445;SDS011;4761;49.490;10.908;2023-04-07T08:18:48;5.17;;;4.17;;
9445;SDS011;4761;49.490;10.908;2023-04-07T08:21:13;5.33;;;4.13;;
9445;SDS011;4761;49.490;10.908;2023-04-07T08:23:39;4.70;;;4.03;;
9445;SDS011;4761;49.490;10.908;2023-04-07T08:26:05;5.00;;;4.47;;
9445;SDS011;4761;49.490;10.908;2023-04-07T08:28:30;5.87;;;4.53;;
9445;SDS011;4761;49.490;10.908;2023-04-07T08:30:56;6.27;;;4.50;;
9445;SDS011;4761;49.490;10.908;2023-04-07T08:33:21;4.80;;;4.30;;
9445;SDS011;4761;49.490;10.908;2023-04-07T08:35:47;5.67;;;4.40;;
9445;SDS011;4761;49.490;10.908;2023-04-07T08:38:12;5.57;;;4.50;;
9445;SDS011;4761;49.490;10.908;2023-04-07T08:40:38;5.67;;;4.00;;
9445;SDS011;4761;49.490;10.908;2023-04-07T08:43:05;4.80;;;3.90;;
9445;SDS011;4761;49.490;10.908;2023-04-07T08:45:33;4.87;;;4.20;;
9445;SDS011;4761;49.490;10.908;2023-04-07T08:48:03;5.50;;;4.50;;
9445;SDS011;4761;49.490;10.908;2023-04-07T08:50:33;5.03;;;4.27;;
9445;SDS011;4761;49.490;10.908;2023-04-07T08:52:59;5.93;;;4.57;;
9445;SDS011;4761;49.490;10.908;2023-04-07T08:55:30;4.77;;;4.00;;
9445;SDS011;4761;49.490;10.908;2023-04-07T08:57:56;5.53;;;4.10;;
9445;SDS011;4761;49.490;10.908;2023-04-07T09:02:49;6.13;;;4.47;;
9445;SDS011;4761;49.490;10.908;2023-04-07T09:05:15;6.07;;;4.90;;
9445;SDS011;4761;49.490;10.908;2023-04-07T09:07:41;6.30;;;4.13;;
9445;SDS011;4761;49.490;10.908;2023-04-07T09:10:09;5.53;;;4.33;;
9445;SDS011;4761;49.490;10.908;2023-04-07T09:12:35;7.17;;;4.60;;
9445;SDS011;4761;49.490;10.908;2023-04-07T09:15:01;7.07;;;4.80;;
9445;SDS011;4761;49.490;10.908;2023-04-07T09:17:27;7.30;;;4.93;;
9445;SDS011;4761;49.490;10.908;2023-04-07T09:19:56;5.70;;;4.10;;
9445;SDS011;4761;49.490;10.908;2023-04-07T09:22:39;6.23;;;4.20;;
9445;SDS011;4761;49.490;10.908;2023-04-07T09:28:08;6.37;;;4.43;;
9445;SDS011;4761;49.490;10.908;2023-04-07T09:30:33;7.03;;;4.67;;
9445;SDS011;4761;49.490;10.908;2023-04-07T09:32:59;7.00;;;4.23;;
9445;SDS011;4761;49.490;10.908;2023-04-07T09:35:25;6.10;;;4.40;;
9445;SDS011;4761;49.490;10.908;2023-04-07T09:38:02;4.97;;;4.00;;
9445;SDS011;4761;49.490;10.908;2023-04-07T09:40:27;6.37;;;4.37;;
9445;SDS011;4761;49.490;10.908;2023-04-07T09:42:53;6.80;;;4.43;;
9445;SDS011;4761;49.490;10.908;2023-04-07T09:45:25;5.23;;;3.87;;
9445;SDS011;4761;49.490;10.908;2023-04-07T09:47:55;6.07;;;4.20;;
9445;SDS011;4761;49.490;10.908;2023-04-07T09:50:31;4.90;;;3.90;;
9445;SDS011;4761;49.490;10.908;2023-04-07T09:53:05;5.40;;;3.80;;
9445;SDS011;4761;49.490;10.908;2023-04-07T09:55:31;5.17;;;3.70;;
9445;SDS011;4761;49.490;10.908;2023-04-07T09:57:57;5.73;;;4.10;;
9445;SDS011;4761;49.490;10.908;2023-04-07T10:00:24;5.60;;;4.07;;
9445;SDS011;4761;49.490;10.908;2023-04-07T10:02:50;6.43;;;4.10;;
9445;SDS011;4761;49.490;10.908;2023-04-07T10:05:16;4.67;;;3.73;;
9445;SDS011;4761;49.490;10.908;2023-04-07T10:07:45;4.87;;;3.77;;
9445;SDS011;4761;49.490;10.908;2023-04-07T10:10:10;6.07;;;3.90;;
9445;SDS011;4761;49.490;10.908;2023-04-07T10:12:36;4.77;;;3.60;;
9445;SDS011;4761;49.490;10.908;2023-04-07T10:15:02;4.83;;;3.47;;
9445;SDS011;4761;49.490;10.908;2023-04-07T10:17:28;4.67;;;3.27;;
9445;SDS011;4761;49.490;10.908;2023-04-07T10:19:56;5.60;;;3.67;;
9445;SDS011;4761;49.490;10.908;2023-04-07T10:22:23;5.90;;;3.77;;
9445;SDS011;4761;49.490;10.908;2023-04-07T10:24:59;5.17;;;3.37;;
9445;SDS011;4761;49.490;10.908;2023-04-07T10:27:34;5.13;;;3.67;;
9445;SDS011;4761;49.490;10.908;2023-04-07T10:30:05;4.93;;;3.27;;
9445;SDS011;4761;49.490;10.908;2023-04-07T10:32:46;4.27;;;3.33;;
9445;SDS011;4761;49.490;10.908;2023-04-07T10:35:13;4.87;;;3.30;;
9445;SDS011;4761;49.490;10.908;2023-04-07T10:37:38;3.80;;;2.93;;
9445;SDS011;4761;49.490;10.908;2023-04-07T10:42:50;4.43;;;3.17;;
9445;SDS011;4761;49.490;10.908;2023-04-07T10:45:16;4.77;;;3.70;;
9445;SDS011;4761;49.490;10.908;2023-04-07T10:48:14;4.07;;;3.03;;
9445;SDS011;4761;49.490;10.908;2023-04-07T10:50:41;5.27;;;3.30;;
9445;SDS011;4761;49.490;10.908;2023-04-07T10:53:07;4.60;;;3.20;;
9445;SDS011;4761;49.490;10.908;2023-04-07T10:55:39;4.97;;;3.60;;
9445;SDS011;4761;49.490;10.908;2023-04-07T11:03:27;4.03;;;3.07;;
9445;SDS011;4761;49.490;10.908;2023-04-07T11:06:10;4.17;;;3.30;;
9445;SDS011;4761;49.490;10.908;2023-04-07T11:11:05;4.00;;;3.13;;
9445;SDS011;4761;49.490;10.908;2023-04-07T11:13:43;3.93;;;2.90;;
9445;SDS011;4761;49.490;10.908;2023-04-07T11:16:10;3.30;;;2.60;;
9445;SDS011;4761;49.490;10.908;2023-04-07T11:18:37;3.50;;;2.80;;
9445;SDS011;4761;49.490;10.908;2023-04-07T11:21:04;4.10;;;3.00;;
9445;SDS011;4761;49.490;10.908;2023-04-07T11:23:40;2.87;;;2.50;;
9445;SDS011;4761;49.490;10.908;2023-04-07T11:26:07;3.50;;;2.87;;
9445;SDS011;4761;49.490;10.908;2023-04-07T11:28:35;3.53;;;2.70;;
9445;SDS011;4761;49.490;10.908;2023-04-07T11:31:19;4.10;;;2.97;;
9445;SDS011;4761;49.490;10.908;2023-04-07T11:33:53;3.83;;;2.80;;
9445;SDS011;4761;49.490;10.908;2023-04-07T11:36:27;3.80;;;2.87;;
9445;SDS011;4761;49.490;10.908;2023-04-07T11:38:52;3.87;;;3.17;;
9445;SDS011;4761;49.490;10.908;2023-04-07T11:41:19;3.77;;;2.60;;
9445;SDS011;4761;49.490;10.908;2023-04-07T11:43:45;3.80;;;3.00;;
9445;SDS011;4761;49.490;10.908;2023-04-07T11:46:12;2.40;;;2.20;;
9445;SDS011;4761;49.490;10.908;2023-04-07T11:48:42;3.30;;;2.60;;
9445;SDS011;4761;49.490;10.908;2023-04-07T11:51:19;2.90;;;2.50;;
9445;SDS011;4761;49.490;10.908;2023-04-07T11:53:46;3.63;;;2.77;;
9445;SDS011;4761;49.490;10.908;2023-04-07T11:56:18;3.07;;;2.30;;
9445;SDS011;4761;49.490;10.908;2023-04-07T11:58:46;2.80;;;2.50;;
9445;SDS011;4761;49.490;10.908;2023-04-07T12:01:12;2.40;;;2.20;;
9445;SDS011;4761;49.490;10.908;2023-04-07T12:03:53;2.50;;;2.20;;
9445;SDS011;4761;49.490;10.908;2023-04-07T12:06:29;4.03;;;2.50;;
9445;SDS011;4761;49.490;10.908;2023-04-07T12:08:59;2.83;;;2.27;;
9445;SDS011;4761;49.490;10.908;2023-04-07T12:11:50;2.87;;;2.00;;
9445;SDS011;4761;49.490;10.908;2023-04-07T12:14:16;2.47;;;2.17;;
9445;SDS011;4761;49.490;10.908;2023-04-07T12:16:42;3.07;;;2.23;;
9445;SDS011;4761;49.490;10.908;2023-04-07T12:19:07;2.03;;;1.83;;
9445;SDS011;4761;49.490;10.908;2023-04-07T12:21:33;2.30;;;2.00;;
9445;SDS011;4761;49.490;10.908;2023-04-07T12:23:58;2.27;;;2.07;;
9445;SDS011;4761;49.490;10.908;2023-04-07T12:26:24;2.63;;;2.20;;
9445;SDS011;4761;49.490;10.908;2023-04-07T12:28:50;2.20;;;2.00;;
9445;SDS011;4761;49.490;10.908;2023-04-07T12:31:15;2.20;;;1.90;;
9445;SDS011;4761;49.490;10.908;2023-04-07T12:33:41;2.07;;;1.87;;
9445;SDS011;4761;49.490;10.908;2023-04-07T12:36:07;2.20;;;1.90;;
9445;SDS011;4761;49.490;10.908;2023-04-07T12:38:32;2.27;;;2.00;;
9445;SDS011;4761;49.490;10.908;2023-04-07T12:40:58;2.40;;;2.03;;
9445;SDS011;4761;49.490;10.908;2023-04-07T12:43:30;2.43;;;2.00;;
9445;SDS011;4761;49.490;10.908;2023-04-07T12:45:56;2.10;;;1.90;;
9445;SDS011;4761;49.490;10.908;2023-04-07T12:48:22;1.93;;;1.73;;
9445;SDS011;4761;49.490;10.908;2023-04-07T12:50:47;2.00;;;1.80;;
9445;SDS011;4761;49.490;10.908;2023-04-07T12:53:13;2.40;;;2.10;;
9445;SDS011;4761;49.490;10.908;2023-04-07T12:55:39;2.23;;;2.03;;
9445;SDS011;4761;49.490;10.908;2023-04-07T12:58:06;3.33;;;2.30;;
9445;SDS011;4761;49.490;10.908;2023-04-07T13:00:31;2.33;;;2.07;;
9445;SDS011;4761;49.490;10.908;2023-04-07T13:02:57;2.43;;;2.00;;
9445;SDS011;4761;49.490;10.908;2023-04-07T13:05:22;2.70;;;2.00;;
9445;SDS011;4761;49.490;10.908;2023-04-07T13:07:48;1.80;;;1.70;;
9445;SDS011;4761;49.490;10.908;2023-04-07T13:10:13;2.53;;;2.20;;
9445;SDS011;4761;49.490;10.908;2023-04-07T13:12:39;2.87;;;2.10;;
9445;SDS011;4761;49.490;10.908;2023-04-07T13:15:06;2.27;;;1.90;;
9445;SDS011;4761;49.490;10.908;2023-04-07T13:17:32;2.93;;;2.10;;
9445;SDS011;4761;49.490;10.908;2023-04-07T13:20:00;2.13;;;1.93;;
9445;SDS011;4761;49.490;10.908;2023-04-07T13:22:27;2.60;;;2.07;;
9445;SDS011;4761;49.490;10.908;2023-04-07T13:24:53;2.40;;;2.20;;
9445;SDS011;4761;49.490;10.908;2023-04-07T13:27:18;2.37;;;1.97;;
9445;SDS011;4761;49.490;10.908;2023-04-07T13:29:45;1.70;;;1.60;;
9445;SDS011;4761;49.490;10.908;2023-04-07T13:32:10;2.00;;;1.70;;
9445;SDS011;4761;49.490;10.908;2023-04-07T13:34:40;2.00;;;1.70;;
9445;SDS011;4761;49.490;10.908;2023-04-07T13:37:06;2.90;;;2.17;;
9445;SDS011;4761;49.490;10.908;2023-04-07T13:39:31;2.27;;;2.07;;
9445;SDS011;4761;49.490;10.908;2023-04-07T13:41:57;2.10;;;1.90;;
9445;SDS011;4761;49.490;10.908;2023-04-07T13:44:24;1.97;;;1.83;;
9445;SDS011;4761;49.490;10.908;2023-04-07T13:46:50;1.80;;;1.70;;
9445;SDS011;4761;49.490;10.908;2023-04-07T13:49:16;2.07;;;1.87;;
9445;SDS011;4761;49.490;10.908;2023-04-07T13:51:42;2.13;;;1.90;;
9445;SDS011;4761;49.490;10.908;2023-04-07T13:54:07;2.00;;;1.80;;
9445;SDS011;4761;49.490;10.908;2023-04-07T13:56:33;2.20;;;1.93;;
9445;SDS011;4761;49.490;10.908;2023-04-07T13:59:02;2.40;;;2.07;;
9445;SDS011;4761;49.490;10.908;2023-04-07T14:01:31;1.97;;;1.83;;
9445;SDS011;4761;49.490;10.908;2023-04-07T14:03:57;1.90;;;1.70;;
9445;SDS011;4761;49.490;10.908;2023-04-07T14:06:23;2.67;;;1.70;;
9445;SDS011;4761;49.490;10.908;2023-04-07T14:08:50;2.13;;;1.83;;
9445;SDS011;4761;49.490;10.908;2023-04-07T14:11:17;2.10;;;1.87;;
9445;SDS011;4761;49.490;10.908;2023-04-07T14:13:43;2.00;;;1.80;;
9445;SDS011;4761;49.490;10.908;2023-04-07T14:16:09;1.80;;;1.70;;
9445;SDS011;4761;49.490;10.908;2023-04-07T14:18:34;2.00;;;1.80;;
9445;SDS011;4761;49.490;10.908;2023-04-07T14:21:01;2.00;;;1.80;;
9445;SDS011;4761;49.490;10.908;2023-04-07T14:23:27;2.10;;;1.90;;
9445;SDS011;4761;49.490;10.908;2023-04-07T14:25:53;2.17;;;1.90;;
9445;SDS011;4761;49.490;10.908;2023-04-07T14:28:18;1.80;;;1.60;;
9445;SDS011;4761;49.490;10.908;2023-04-07T14:30:45;3.40;;;1.60;;
9445;SDS011;4761;49.490;10.908;2023-04-07T14:33:11;1.67;;;1.50;;
9445;SDS011;4761;49.490;10.908;2023-04-07T14:35:36;2.87;;;1.60;;
9445;SDS011;4761;49.490;10.908;2023-04-07T14:38:02;2.13;;;1.90;;
9445;SDS011;4761;49.490;10.908;2023-04-07T14:40:27;1.47;;;1.37;;
9445;SDS011;4761;49.490;10.908;2023-04-07T14:42:53;2.00;;;1.80;;
9445;SDS011;4761;49.490;10.908;2023-04-07T14:45:19;1.60;;;1.50;;
9445;SDS011;4761;49.490;10.908;2023-04-07T14:47:45;1.50;;;1.40;;
9445;SDS011;4761;49.490;10.908;2023-04-07T14:50:10;2.10;;;1.50;;
9445;SDS011;4761;49.490;10.908;2023-04-07T14:52:36;2.30;;;1.80;;
9445;SDS011;4761;49.490;10.908;2023-04-07T14:55:02;3.13;;;1.60;;
9445;SDS011;4761;49.490;10.908;2023-04-07T14:57:28;1.60;;;1.50;;
9445;SDS011;4761;49.490;10.908;2023-04-07T14:59:53;1.77;;;1.40;;
9445;SDS011;4761;49.490;10.908;2023-04-07T15:02:19;1.40;;;1.30;;
9445;SDS011;4761;49.490;10.908;2023-04-07T15:04:44;1.63;;;1.50;;
9445;SDS011;4761;49.490;10.908;2023-04-07T15:07:10;1.47;;;1.37;;
9445;SDS011;4761;49.490;10.908;2023-04-07T15:09:35;1.60;;;1.50;;
9445;SDS011;4761;49.490;10.908;2023-04-07T15:12:01;1.47;;;1.20;;
9445;SDS011;4761;49.490;10.908;2023-04-07T15:14:26;1.70;;;1.60;;
9445;SDS011;4761;49.490;10.908;2023-04-07T15:16:52;1.70;;;1.50;;
9445;SDS011;4761;49.490;10.908;2023-04-07T15:19:18;1.40;;;1.30;;
9445;SDS011;4761;49.490;10.908;2023-04-07T15:21:43;1.93;;;1.50;;
9445;SDS011;4761;49.490;10.908;2023-04-07T15:24:09;1.43;;;1.33;;
9445;SDS011;4761;49.490;10.908;2023-04-07T15:26:34;1.50;;;1.40;;
9445;SDS011;4761;49.490;10.908;2023-04-07T15:29:00;1.40;;;1.30;;